<?xml version="1.0" encoding="UTF-8" standalone="no" ?>
<gpx xmlns="http://www.topografix.com/GPX/1/1" xmlns:xsi="http://www.w3.org/2001/XMLSchema-instance" xsi:schemaLocation="http://www.topografix.com/GPX/1/1 http://www.topografix.com/GPX/1/1/gpx.xsd" version="1.1" creator="VisuGPX - https://www.visugpx.com">
  <metadata>
    <name>Rando Lyons 17 10 15</name>
    <desc><![CDATA[Compilation des 2 traces de Jacques]]></desc>
  </metadata>
  <trk>
    <name><![CDATA[--Lyons-la-Forêt-- OR-5347732:Balade du 17/10/2016]]></name>
    <trkseg>
      <trkpt lat="49.39923" lon="1.47926">
        <ele>107</ele>
        <time>2015-10-10T19:28:49Z</time>
      </trkpt>
      <trkpt lat="49.39894" lon="1.47884">
        <ele>109</ele>
        <time>2015-10-10T19:30:49Z</time>
      </trkpt>
      <trkpt lat="49.39727" lon="1.47891">
        <ele>131</ele>
        <time>2015-10-10T19:32:49Z</time>
      </trkpt>
      <trkpt lat="49.39688" lon="1.47861">
        <ele>138</ele>
        <time>2015-10-10T19:34:49Z</time>
      </trkpt>
      <trkpt lat="49.39413" lon="1.47505">
        <ele>163</ele>
        <time>2015-10-10T19:36:49Z</time>
      </trkpt>
      <trkpt lat="49.39199" lon="1.47348">
        <ele>162</ele>
        <time>2015-10-10T19:38:49Z</time>
      </trkpt>
      <trkpt lat="49.39172" lon="1.47513">
        <ele>162</ele>
        <time>2015-10-10T19:40:49Z</time>
      </trkpt>
      <trkpt lat="49.39145" lon="1.47558">
        <ele>163</ele>
        <time>2015-10-10T19:42:49Z</time>
      </trkpt>
      <trkpt lat="49.38959" lon="1.47485">
        <ele>167</ele>
        <time>2015-10-10T19:44:49Z</time>
      </trkpt>
      <trkpt lat="49.38725" lon="1.47666">
        <ele>172</ele>
        <time>2015-10-10T19:46:49Z</time>
      </trkpt>
      <trkpt lat="49.38674" lon="1.47689">
        <ele>171</ele>
        <time>2015-10-10T19:48:49Z</time>
      </trkpt>
      <trkpt lat="49.38537" lon="1.47771">
        <ele>170</ele>
        <time>2015-10-10T19:50:49Z</time>
      </trkpt>
      <trkpt lat="49.38428" lon="1.47792">
        <ele>170</ele>
        <time>2015-10-10T19:52:49Z</time>
      </trkpt>
      <trkpt lat="49.38405" lon="1.47809">
        <ele>170</ele>
        <time>2015-10-10T19:54:49Z</time>
      </trkpt>
      <trkpt lat="49.38328" lon="1.47796">
        <ele>174</ele>
        <time>2015-10-10T19:56:49Z</time>
      </trkpt>
      <trkpt lat="49.38271" lon="1.47803">
        <ele>177</ele>
        <time>2015-10-10T19:58:49Z</time>
      </trkpt>
      <trkpt lat="49.37981" lon="1.47773">
        <ele>184</ele>
        <time>2015-10-10T20:00:49Z</time>
      </trkpt>
      <trkpt lat="49.3796" lon="1.47803">
        <ele>182</ele>
        <time>2015-10-10T20:02:49Z</time>
      </trkpt>
      <trkpt lat="49.38148" lon="1.48876">
        <ele>179</ele>
        <time>2015-10-10T20:04:49Z</time>
      </trkpt>
      <trkpt lat="49.3809" lon="1.48942">
        <ele>181</ele>
        <time>2015-10-10T20:06:49Z</time>
      </trkpt>
      <trkpt lat="49.37716" lon="1.48532">
        <ele>172</ele>
        <time>2015-10-10T20:08:49Z</time>
      </trkpt>
      <trkpt lat="49.37687" lon="1.48462">
        <ele>170</ele>
        <time>2015-10-10T20:10:49Z</time>
      </trkpt>
      <trkpt lat="49.37555" lon="1.48234">
        <ele>157</ele>
        <time>2015-10-10T20:12:49Z</time>
      </trkpt>
      <trkpt lat="49.3752" lon="1.48202">
        <ele>154</ele>
        <time>2015-10-10T20:14:49Z</time>
      </trkpt>
      <trkpt lat="49.37332" lon="1.48166">
        <ele>139</ele>
        <time>2015-10-10T20:16:49Z</time>
      </trkpt>
      <trkpt lat="49.37275" lon="1.48168">
        <ele>135</ele>
        <time>2015-10-10T20:18:49Z</time>
      </trkpt>
      <trkpt lat="49.37216" lon="1.48157">
        <ele>130</ele>
        <time>2015-10-10T20:20:49Z</time>
      </trkpt>
      <trkpt lat="49.37156" lon="1.48125">
        <ele>124</ele>
        <time>2015-10-10T20:22:49Z</time>
      </trkpt>
      <trkpt lat="49.37124" lon="1.48099">
        <ele>118</ele>
        <time>2015-10-10T20:24:49Z</time>
      </trkpt>
      <trkpt lat="49.37031" lon="1.48135">
        <ele>103</ele>
        <time>2015-10-10T20:26:49Z</time>
      </trkpt>
      <trkpt lat="49.37054" lon="1.48211">
        <ele>106</ele>
        <time>2015-10-10T20:28:49Z</time>
      </trkpt>
      <trkpt lat="49.37118" lon="1.48387">
        <ele>112</ele>
        <time>2015-10-10T20:30:49Z</time>
      </trkpt>
      <trkpt lat="49.37107" lon="1.48492">
        <ele>103</ele>
        <time>2015-10-10T20:32:49Z</time>
      </trkpt>
      <trkpt lat="49.37115" lon="1.48541">
        <ele>100</ele>
        <time>2015-10-10T20:34:49Z</time>
      </trkpt>
      <trkpt lat="49.37171" lon="1.48681">
        <ele>100</ele>
        <time>2015-10-10T20:36:49Z</time>
      </trkpt>
      <trkpt lat="49.37203" lon="1.48833">
        <ele>107</ele>
        <time>2015-10-10T20:38:49Z</time>
      </trkpt>
      <trkpt lat="49.37195" lon="1.48917">
        <ele>103</ele>
        <time>2015-10-10T20:40:49Z</time>
      </trkpt>
      <trkpt lat="49.37195" lon="1.48979">
        <ele>102</ele>
        <time>2015-10-10T20:42:49Z</time>
      </trkpt>
      <trkpt lat="49.37228" lon="1.49144">
        <ele>102</ele>
        <time>2015-10-10T20:44:49Z</time>
      </trkpt>
      <trkpt lat="49.37224" lon="1.49204">
        <ele>101</ele>
        <time>2015-10-10T20:46:49Z</time>
      </trkpt>
      <trkpt lat="49.37206" lon="1.49258">
        <ele>101</ele>
        <time>2015-10-10T20:48:49Z</time>
      </trkpt>
      <trkpt lat="49.37114" lon="1.4902">
        <ele>105</ele>
        <time>2015-10-10T20:50:49Z</time>
      </trkpt>
      <trkpt lat="49.3711" lon="1.48906">
        <ele>106</ele>
        <time>2015-10-10T20:52:49Z</time>
      </trkpt>
      <trkpt lat="49.37093" lon="1.48871">
        <ele>107</ele>
        <time>2015-10-10T20:54:49Z</time>
      </trkpt>
      <trkpt lat="49.36973" lon="1.48723">
        <ele>111</ele>
        <time>2015-10-10T20:56:49Z</time>
      </trkpt>
      <trkpt lat="49.36955" lon="1.48687">
        <ele>113</ele>
        <time>2015-10-10T20:58:49Z</time>
      </trkpt>
      <trkpt lat="49.36911" lon="1.48515">
        <ele>113</ele>
        <time>2015-10-10T21:00:49Z</time>
      </trkpt>
      <trkpt lat="49.36889" lon="1.48472">
        <ele>115</ele>
        <time>2015-10-10T21:02:49Z</time>
      </trkpt>
      <trkpt lat="49.36864" lon="1.48384">
        <ele>113</ele>
        <time>2015-10-10T21:04:49Z</time>
      </trkpt>
      <trkpt lat="49.36801" lon="1.48174">
        <ele>112</ele>
        <time>2015-10-10T21:06:49Z</time>
      </trkpt>
      <trkpt lat="49.36804" lon="1.48075">
        <ele>106</ele>
        <time>2015-10-10T21:08:49Z</time>
      </trkpt>
      <trkpt lat="49.36795" lon="1.47994">
        <ele>103</ele>
        <time>2015-10-10T21:10:49Z</time>
      </trkpt>
      <trkpt lat="49.36765" lon="1.47902">
        <ele>103</ele>
        <time>2015-10-10T21:12:49Z</time>
      </trkpt>
      <trkpt lat="49.36521" lon="1.47558">
        <ele>94</ele>
        <time>2015-10-10T21:14:49Z</time>
      </trkpt>
      <trkpt lat="49.36484" lon="1.4755">
        <ele>93</ele>
        <time>2015-10-10T21:16:49Z</time>
      </trkpt>
      <trkpt lat="49.36336" lon="1.47657">
        <ele>90</ele>
        <time>2015-10-10T21:18:49Z</time>
      </trkpt>
      <trkpt lat="49.3628" lon="1.47668">
        <ele>92</ele>
        <time>2015-10-10T21:20:49Z</time>
      </trkpt>
      <trkpt lat="49.36222" lon="1.47653">
        <ele>95</ele>
        <time>2015-10-10T21:22:49Z</time>
      </trkpt>
      <trkpt lat="49.36178" lon="1.4759">
        <ele>93</ele>
        <time>2015-10-10T21:24:49Z</time>
      </trkpt>
      <trkpt lat="49.36131" lon="1.47522">
        <ele>92</ele>
        <time>2015-10-10T21:26:49Z</time>
      </trkpt>
      <trkpt lat="49.36009" lon="1.47393">
        <ele>92</ele>
        <time>2015-10-10T21:28:49Z</time>
      </trkpt>
      <trkpt lat="49.35992" lon="1.47344">
        <ele>87</ele>
        <time>2015-10-10T21:30:49Z</time>
      </trkpt>
      <trkpt lat="49.35954" lon="1.47296">
        <ele>81</ele>
        <time>2015-10-10T21:32:49Z</time>
      </trkpt>
      <trkpt lat="49.35904" lon="1.47339">
        <ele>84</ele>
        <time>2015-10-10T21:34:49Z</time>
      </trkpt>
      <trkpt lat="49.35835" lon="1.47352">
        <ele>86</ele>
        <time>2015-10-10T21:36:49Z</time>
      </trkpt>
      <trkpt lat="49.35772" lon="1.47327">
        <ele>86</ele>
        <time>2015-10-10T21:38:49Z</time>
      </trkpt>
      <trkpt lat="49.35733" lon="1.47288">
        <ele>83</ele>
        <time>2015-10-10T21:40:49Z</time>
      </trkpt>
      <trkpt lat="49.35673" lon="1.47213">
        <ele>79</ele>
        <time>2015-10-10T21:42:49Z</time>
      </trkpt>
      <trkpt lat="49.35542" lon="1.47204">
        <ele>83</ele>
        <time>2015-10-10T21:44:49Z</time>
      </trkpt>
      <trkpt lat="49.35444" lon="1.47136">
        <ele>78</ele>
        <time>2015-10-10T21:46:49Z</time>
      </trkpt>
      <trkpt lat="49.35405" lon="1.47131">
        <ele>78</ele>
        <time>2015-10-10T21:48:49Z</time>
      </trkpt>
      <trkpt lat="49.35359" lon="1.47123">
        <ele>77</ele>
        <time>2015-10-10T21:50:49Z</time>
      </trkpt>
      <trkpt lat="49.35345" lon="1.47103">
        <ele>76</ele>
        <time>2015-10-10T21:52:49Z</time>
      </trkpt>
      <trkpt lat="49.35292" lon="1.46996">
        <ele>74</ele>
        <time>2015-10-10T21:54:49Z</time>
      </trkpt>
      <trkpt lat="49.35251" lon="1.46998">
        <ele>74</ele>
        <time>2015-10-10T21:56:49Z</time>
      </trkpt>
      <trkpt lat="49.35194" lon="1.47033">
        <ele>73</ele>
        <time>2015-10-10T21:58:49Z</time>
      </trkpt>
      <trkpt lat="49.35156" lon="1.46919">
        <ele>74</ele>
        <time>2015-10-10T22:00:49Z</time>
      </trkpt>
      <trkpt lat="49.35152" lon="1.46831">
        <ele>78</ele>
        <time>2015-10-10T22:02:49Z</time>
      </trkpt>
      <trkpt lat="49.35115" lon="1.46739">
        <ele>80</ele>
        <time>2015-10-10T22:04:49Z</time>
      </trkpt>
      <trkpt lat="49.35069" lon="1.4658">
        <ele>84</ele>
        <time>2015-10-10T22:06:49Z</time>
      </trkpt>
      <trkpt lat="49.35078" lon="1.46432">
        <ele>91</ele>
        <time>2015-10-10T22:08:49Z</time>
      </trkpt>
      <trkpt lat="49.35096" lon="1.46342">
        <ele>93</ele>
        <time>2015-10-10T22:10:49Z</time>
      </trkpt>
      <trkpt lat="49.35075" lon="1.46327">
        <ele>87</ele>
        <time>2015-10-10T22:12:49Z</time>
      </trkpt>
      <trkpt lat="49.35265" lon="1.45949">
        <ele>83</ele>
        <time>2015-10-10T22:14:49Z</time>
      </trkpt>
      <trkpt lat="49.35262" lon="1.45767">
        <ele>74</ele>
        <time>2015-10-10T22:16:49Z</time>
      </trkpt>
      <trkpt lat="49.35238" lon="1.45737">
        <ele>69</ele>
        <time>2015-10-10T22:18:49Z</time>
      </trkpt>
      <trkpt lat="49.35209" lon="1.45732">
        <ele>68</ele>
        <time>2015-10-10T22:20:49Z</time>
      </trkpt>
      <trkpt lat="49.35196" lon="1.4549">
        <ele>66</ele>
        <time>2015-10-10T22:22:49Z</time>
      </trkpt>
      <trkpt lat="49.35138" lon="1.44831">
        <ele>68</ele>
        <time>2015-10-10T22:24:49Z</time>
      </trkpt>
      <trkpt lat="49.35008" lon="1.44578">
        <ele>62</ele>
        <time>2015-10-10T22:26:49Z</time>
      </trkpt>
      <trkpt lat="49.3503" lon="1.4452">
        <ele>63</ele>
        <time>2015-10-10T22:28:49Z</time>
      </trkpt>
      <trkpt lat="49.35073" lon="1.44458">
        <ele>62</ele>
        <time>2015-10-10T22:30:49Z</time>
      </trkpt>
      <trkpt lat="49.35167" lon="1.44398">
        <ele>63</ele>
        <time>2015-10-10T22:32:49Z</time>
      </trkpt>
      <trkpt lat="49.35266" lon="1.44297">
        <ele>66</ele>
        <time>2015-10-10T22:34:49Z</time>
      </trkpt>
      <trkpt lat="49.35322" lon="1.44226">
        <ele>67</ele>
        <time>2015-10-10T22:36:49Z</time>
      </trkpt>
      <trkpt lat="49.35361" lon="1.44116">
        <ele>69</ele>
        <time>2015-10-10T22:38:49Z</time>
      </trkpt>
      <trkpt lat="49.35357" lon="1.44031">
        <ele>67</ele>
        <time>2015-10-10T22:40:49Z</time>
      </trkpt>
      <trkpt lat="49.35378" lon="1.43863">
        <ele>65</ele>
        <time>2015-10-10T22:42:49Z</time>
      </trkpt>
      <trkpt lat="49.35368" lon="1.4382">
        <ele>64</ele>
        <time>2015-10-10T22:44:49Z</time>
      </trkpt>
      <trkpt lat="49.35388" lon="1.43636">
        <ele>67</ele>
        <time>2015-10-10T22:46:49Z</time>
      </trkpt>
      <trkpt lat="49.3541" lon="1.43619">
        <ele>71</ele>
        <time>2015-10-10T22:48:49Z</time>
      </trkpt>
      <trkpt lat="49.3547" lon="1.43614">
        <ele>82</ele>
        <time>2015-10-10T22:50:49Z</time>
      </trkpt>
      <trkpt lat="49.35498" lon="1.43638">
        <ele>86</ele>
        <time>2015-10-10T22:52:49Z</time>
      </trkpt>
      <trkpt lat="49.36039" lon="1.4352">
        <ele>126</ele>
        <time>2015-10-10T22:54:49Z</time>
      </trkpt>
      <trkpt lat="49.3613" lon="1.43404">
        <ele>116</ele>
        <time>2015-10-10T22:56:49Z</time>
      </trkpt>
      <trkpt lat="49.36403" lon="1.43745">
        <ele>106</ele>
        <time>2015-10-10T22:58:49Z</time>
      </trkpt>
      <trkpt lat="49.36435" lon="1.43745">
        <ele>104</ele>
        <time>2015-10-10T23:00:49Z</time>
      </trkpt>
      <trkpt lat="49.36482" lon="1.43784">
        <ele>106</ele>
        <time>2015-10-10T23:02:49Z</time>
      </trkpt>
      <trkpt lat="49.36636" lon="1.43829">
        <ele>107</ele>
        <time>2015-10-10T23:04:49Z</time>
      </trkpt>
      <trkpt lat="49.36699" lon="1.43814">
        <ele>97</ele>
        <time>2015-10-10T23:06:49Z</time>
      </trkpt>
      <trkpt lat="49.36765" lon="1.4382">
        <ele>87</ele>
        <time>2015-10-10T23:08:49Z</time>
      </trkpt>
      <trkpt lat="49.36802" lon="1.43801">
        <ele>76</ele>
        <time>2015-10-10T23:10:49Z</time>
      </trkpt>
      <trkpt lat="49.36847" lon="1.43722">
        <ele>64</ele>
        <time>2015-10-10T23:12:49Z</time>
      </trkpt>
      <trkpt lat="49.36854" lon="1.43677">
        <ele>61</ele>
        <time>2015-10-10T23:14:49Z</time>
      </trkpt>
      <trkpt lat="49.36876" lon="1.43685">
        <ele>62</ele>
        <time>2015-10-10T23:16:49Z</time>
      </trkpt>
      <trkpt lat="49.36874" lon="1.43398">
        <ele>62</ele>
        <time>2015-10-10T23:18:49Z</time>
      </trkpt>
      <trkpt lat="49.36893" lon="1.43243">
        <ele>78</ele>
        <time>2015-10-10T23:20:49Z</time>
      </trkpt>
      <trkpt lat="49.36935" lon="1.43177">
        <ele>89</ele>
        <time>2015-10-10T23:22:49Z</time>
      </trkpt>
      <trkpt lat="49.37114" lon="1.43095">
        <ele>111</ele>
        <time>2015-10-10T23:24:49Z</time>
      </trkpt>
      <trkpt lat="49.37227" lon="1.43071">
        <ele>117</ele>
        <time>2015-10-10T23:26:49Z</time>
      </trkpt>
      <trkpt lat="49.373" lon="1.43037">
        <ele>122</ele>
        <time>2015-10-10T23:28:49Z</time>
      </trkpt>
      <trkpt lat="49.37209" lon="1.42793">
        <ele>125</ele>
        <time>2015-10-10T23:30:49Z</time>
      </trkpt>
      <trkpt lat="49.36751" lon="1.42552">
        <ele>138</ele>
        <time>2015-10-10T23:32:49Z</time>
      </trkpt>
      <trkpt lat="49.36692" lon="1.42552">
        <ele>135</ele>
        <time>2015-10-10T23:34:49Z</time>
      </trkpt>
      <trkpt lat="49.3663" lon="1.42511">
        <ele>129</ele>
        <time>2015-10-10T23:36:49Z</time>
      </trkpt>
      <trkpt lat="49.3657" lon="1.42271">
        <ele>129</ele>
        <time>2015-10-10T23:38:49Z</time>
      </trkpt>
      <trkpt lat="49.37379" lon="1.42188">
        <ele>116</ele>
        <time>2015-10-10T23:40:49Z</time>
      </trkpt>
      <trkpt lat="49.37407" lon="1.42119">
        <ele>118</ele>
        <time>2015-10-10T23:42:49Z</time>
      </trkpt>
      <trkpt lat="49.37418" lon="1.42003">
        <ele>121</ele>
        <time>2015-10-10T23:44:49Z</time>
      </trkpt>
      <trkpt lat="49.37317" lon="1.41668">
        <ele>114</ele>
        <time>2015-10-10T23:46:49Z</time>
      </trkpt>
      <trkpt lat="49.37285" lon="1.41574">
        <ele>110</ele>
        <time>2015-10-10T23:48:49Z</time>
      </trkpt>
      <trkpt lat="49.37236" lon="1.41494">
        <ele>106</ele>
        <time>2015-10-10T23:50:49Z</time>
      </trkpt>
      <trkpt lat="49.37198" lon="1.41426">
        <ele>101</ele>
        <time>2015-10-10T23:52:49Z</time>
      </trkpt>
      <trkpt lat="49.37133" lon="1.41363">
        <ele>99</ele>
        <time>2015-10-10T23:54:49Z</time>
      </trkpt>
      <trkpt lat="49.37128" lon="1.4128">
        <ele>96</ele>
        <time>2015-10-10T23:56:49Z</time>
      </trkpt>
      <trkpt lat="49.37067" lon="1.41074">
        <ele>88</ele>
        <time>2015-10-10T23:58:49Z</time>
      </trkpt>
      <trkpt lat="49.37052" lon="1.40935">
        <ele>83</ele>
        <time>2015-10-11T00:00:49Z</time>
      </trkpt>
      <trkpt lat="49.37054" lon="1.4087">
        <ele>82</ele>
        <time>2015-10-11T00:02:49Z</time>
      </trkpt>
      <trkpt lat="49.36995" lon="1.40698">
        <ele>73</ele>
        <time>2015-10-11T00:04:49Z</time>
      </trkpt>
      <trkpt lat="49.36968" lon="1.4066">
        <ele>69</ele>
        <time>2015-10-11T00:06:49Z</time>
      </trkpt>
      <trkpt lat="49.36957" lon="1.40621">
        <ele>65</ele>
        <time>2015-10-11T00:08:49Z</time>
      </trkpt>
      <trkpt lat="49.36935" lon="1.4057">
        <ele>58</ele>
        <time>2015-10-11T00:10:49Z</time>
      </trkpt>
      <trkpt lat="49.37076" lon="1.40383">
        <ele>63</ele>
        <time>2015-10-11T00:12:49Z</time>
      </trkpt>
      <trkpt lat="49.37156" lon="1.4025">
        <ele>58</ele>
        <time>2015-10-11T00:14:49Z</time>
      </trkpt>
      <trkpt lat="49.37202" lon="1.40188">
        <ele>58</ele>
        <time>2015-10-11T00:16:49Z</time>
      </trkpt>
      <trkpt lat="49.37314" lon="1.39947">
        <ele>55</ele>
        <time>2015-10-11T00:18:49Z</time>
      </trkpt>
      <trkpt lat="49.37314" lon="1.39857">
        <ele>52</ele>
        <time>2015-10-11T00:20:49Z</time>
      </trkpt>
      <trkpt lat="49.37463" lon="1.39561">
        <ele>50</ele>
        <time>2015-10-11T00:22:49Z</time>
      </trkpt>
      <trkpt lat="49.3746" lon="1.39391">
        <ele>44</ele>
        <time>2015-10-11T00:24:49Z</time>
      </trkpt>
      <trkpt lat="49.37487" lon="1.39353">
        <ele>43</ele>
        <time>2015-10-11T00:26:49Z</time>
      </trkpt>
      <trkpt lat="49.37562" lon="1.39312">
        <ele>45</ele>
        <time>2015-10-11T00:28:49Z</time>
      </trkpt>
      <trkpt lat="49.37622" lon="1.39314">
        <ele>49</ele>
        <time>2015-10-11T00:30:49Z</time>
      </trkpt>
      <trkpt lat="49.37705" lon="1.39271">
        <ele>48</ele>
        <time>2015-10-11T00:32:49Z</time>
      </trkpt>
      <trkpt lat="49.37768" lon="1.39267">
        <ele>48</ele>
        <time>2015-10-11T00:34:49Z</time>
      </trkpt>
      <trkpt lat="49.37814" lon="1.39299">
        <ele>51</ele>
        <time>2015-10-11T00:36:49Z</time>
      </trkpt>
      <trkpt lat="49.37864" lon="1.39314">
        <ele>51</ele>
        <time>2015-10-11T00:38:49Z</time>
      </trkpt>
      <trkpt lat="49.37956" lon="1.39308">
        <ele>50</ele>
        <time>2015-10-11T00:40:49Z</time>
      </trkpt>
      <trkpt lat="49.38046" lon="1.39381">
        <ele>55</ele>
        <time>2015-10-11T00:42:49Z</time>
      </trkpt>
      <trkpt lat="49.38085" lon="1.39383">
        <ele>55</ele>
        <time>2015-10-11T00:44:49Z</time>
      </trkpt>
      <trkpt lat="49.38188" lon="1.39246">
        <ele>52</ele>
        <time>2015-10-11T00:46:49Z</time>
      </trkpt>
      <trkpt lat="49.38347" lon="1.39273">
        <ele>59</ele>
        <time>2015-10-11T00:48:49Z</time>
      </trkpt>
      <trkpt lat="49.38546" lon="1.39398">
        <ele>59</ele>
        <time>2015-10-11T00:50:49Z</time>
      </trkpt>
      <trkpt lat="49.38692" lon="1.39482">
        <ele>60</ele>
        <time>2015-10-11T00:52:49Z</time>
      </trkpt>
      <trkpt lat="49.3872" lon="1.39522">
        <ele>60</ele>
        <time>2015-10-11T00:54:49Z</time>
      </trkpt>
      <trkpt lat="49.38814" lon="1.40003">
        <ele>66</ele>
        <time>2015-10-11T00:56:49Z</time>
      </trkpt>
      <trkpt lat="49.38834" lon="1.4005">
        <ele>64</ele>
        <time>2015-10-11T00:58:49Z</time>
      </trkpt>
      <trkpt lat="49.38958" lon="1.40121">
        <ele>68</ele>
        <time>2015-10-11T01:00:49Z</time>
      </trkpt>
      <trkpt lat="49.39061" lon="1.40261">
        <ele>67</ele>
        <time>2015-10-11T01:02:49Z</time>
      </trkpt>
      <trkpt lat="49.39162" lon="1.40329">
        <ele>68</ele>
        <time>2015-10-11T01:04:49Z</time>
      </trkpt>
      <trkpt lat="49.3948" lon="1.40376">
        <ele>86</ele>
        <time>2015-10-11T01:06:49Z</time>
      </trkpt>
      <trkpt lat="49.39565" lon="1.40612">
        <ele>88</ele>
        <time>2015-10-11T01:08:49Z</time>
      </trkpt>
      <trkpt lat="49.39595" lon="1.40724">
        <ele>85</ele>
        <time>2015-10-11T01:10:49Z</time>
      </trkpt>
      <trkpt lat="49.39688" lon="1.40653">
        <ele>88</ele>
        <time>2015-10-11T01:12:49Z</time>
      </trkpt>
      <trkpt lat="49.39761" lon="1.40619">
        <ele>91</ele>
        <time>2015-10-11T01:14:49Z</time>
      </trkpt>
      <trkpt lat="49.39796" lon="1.40615">
        <ele>94</ele>
        <time>2015-10-11T01:16:49Z</time>
      </trkpt>
      <trkpt lat="49.39903" lon="1.40602">
        <ele>95</ele>
        <time>2015-10-11T01:18:49Z</time>
      </trkpt>
      <trkpt lat="49.40114" lon="1.40649">
        <ele>100</ele>
        <time>2015-10-11T01:20:49Z</time>
      </trkpt>
      <trkpt lat="49.40224" lon="1.40709">
        <ele>108</ele>
        <time>2015-10-11T01:22:49Z</time>
      </trkpt>
      <trkpt lat="49.40293" lon="1.40767">
        <ele>113</ele>
        <time>2015-10-11T01:24:49Z</time>
      </trkpt>
      <trkpt lat="49.40368" lon="1.40758">
        <ele>114</ele>
        <time>2015-10-11T01:26:49Z</time>
      </trkpt>
      <trkpt lat="49.40522" lon="1.40707">
        <ele>123</ele>
        <time>2015-10-11T01:28:49Z</time>
      </trkpt>
      <trkpt lat="49.40622" lon="1.40688">
        <ele>124</ele>
        <time>2015-10-11T01:30:49Z</time>
      </trkpt>
      <trkpt lat="49.40684" lon="1.40688">
        <ele>124</ele>
        <time>2015-10-11T01:32:49Z</time>
      </trkpt>
      <trkpt lat="49.40717" lon="1.4066">
        <ele>123</ele>
        <time>2015-10-11T01:34:49Z</time>
      </trkpt>
      <trkpt lat="49.40737" lon="1.40606">
        <ele>125</ele>
        <time>2015-10-11T01:36:49Z</time>
      </trkpt>
      <trkpt lat="49.40748" lon="1.40535">
        <ele>130</ele>
        <time>2015-10-11T01:38:49Z</time>
      </trkpt>
      <trkpt lat="49.41185" lon="1.40003">
        <ele>156</ele>
        <time>2015-10-11T01:40:49Z</time>
      </trkpt>
      <trkpt lat="49.41188" lon="1.39349">
        <ele>138</ele>
        <time>2015-10-11T01:42:49Z</time>
      </trkpt>
      <trkpt lat="49.41213" lon="1.39413">
        <ele>139</ele>
        <time>2015-10-11T01:44:49Z</time>
      </trkpt>
      <trkpt lat="49.41316" lon="1.39563">
        <ele>148</ele>
        <time>2015-10-11T01:46:49Z</time>
      </trkpt>
      <trkpt lat="49.41364" lon="1.39602">
        <ele>151</ele>
        <time>2015-10-11T01:48:49Z</time>
      </trkpt>
      <trkpt lat="49.41434" lon="1.39658">
        <ele>152</ele>
        <time>2015-10-11T01:50:49Z</time>
      </trkpt>
      <trkpt lat="49.41598" lon="1.39911">
        <ele>160</ele>
        <time>2015-10-11T01:52:49Z</time>
      </trkpt>
      <trkpt lat="49.41802" lon="1.39799">
        <ele>165</ele>
        <time>2015-10-11T01:54:49Z</time>
      </trkpt>
      <trkpt lat="49.41857" lon="1.39795">
        <ele>165</ele>
        <time>2015-10-11T01:56:49Z</time>
      </trkpt>
      <trkpt lat="49.41931" lon="1.39773">
        <ele>166</ele>
        <time>2015-10-11T01:58:49Z</time>
      </trkpt>
      <trkpt lat="49.42164" lon="1.39645">
        <ele>167</ele>
        <time>2015-10-11T02:00:49Z</time>
      </trkpt>
      <trkpt lat="49.42256" lon="1.39677">
        <ele>165</ele>
        <time>2015-10-11T02:02:49Z</time>
      </trkpt>
      <trkpt lat="49.42298" lon="1.39677">
        <ele>164</ele>
        <time>2015-10-11T02:04:49Z</time>
      </trkpt>
      <trkpt lat="49.4243" lon="1.3972">
        <ele>165</ele>
        <time>2015-10-11T02:06:49Z</time>
      </trkpt>
      <trkpt lat="49.42447" lon="1.39741">
        <ele>164</ele>
        <time>2015-10-11T02:08:49Z</time>
      </trkpt>
      <trkpt lat="49.42448" lon="1.39742">
        <ele>164</ele>
        <time>2015-10-08T12:19:29Z</time>
      </trkpt>
      <trkpt lat="49.42522" lon="1.39703">
        <ele>161</ele>
        <time>2015-10-08T12:21:29Z</time>
      </trkpt>
      <trkpt lat="49.42609" lon="1.39728">
        <ele>159</ele>
        <time>2015-10-08T12:23:29Z</time>
      </trkpt>
      <trkpt lat="49.42774" lon="1.39643">
        <ele>164</ele>
        <time>2015-10-08T12:25:29Z</time>
      </trkpt>
      <trkpt lat="49.42779" lon="1.39718">
        <ele>163</ele>
        <time>2015-10-08T12:27:29Z</time>
      </trkpt>
      <trkpt lat="49.42764" lon="1.39786">
        <ele>162</ele>
        <time>2015-10-08T12:29:29Z</time>
      </trkpt>
      <trkpt lat="49.4276" lon="1.39844">
        <ele>160</ele>
        <time>2015-10-08T12:31:29Z</time>
      </trkpt>
      <trkpt lat="49.42785" lon="1.39984">
        <ele>155</ele>
        <time>2015-10-08T12:33:29Z</time>
      </trkpt>
      <trkpt lat="49.42792" lon="1.40029">
        <ele>154</ele>
        <time>2015-10-08T12:35:29Z</time>
      </trkpt>
      <trkpt lat="49.42866" lon="1.40022">
        <ele>147</ele>
        <time>2015-10-08T12:37:29Z</time>
      </trkpt>
      <trkpt lat="49.42903" lon="1.40209">
        <ele>130</ele>
        <time>2015-10-08T12:39:29Z</time>
      </trkpt>
      <trkpt lat="49.42991" lon="1.40409">
        <ele>123</ele>
        <time>2015-10-08T12:41:29Z</time>
      </trkpt>
      <trkpt lat="49.43069" lon="1.40336">
        <ele>116</ele>
        <time>2015-10-08T12:43:29Z</time>
      </trkpt>
      <trkpt lat="49.43142" lon="1.40194">
        <ele>114</ele>
        <time>2015-10-08T12:45:29Z</time>
      </trkpt>
      <trkpt lat="49.43191" lon="1.40179">
        <ele>115</ele>
        <time>2015-10-08T12:47:29Z</time>
      </trkpt>
      <trkpt lat="49.43392" lon="1.40342">
        <ele>110</ele>
        <time>2015-10-08T12:49:29Z</time>
      </trkpt>
      <trkpt lat="49.43496" lon="1.40394">
        <ele>101</ele>
        <time>2015-10-08T12:51:29Z</time>
      </trkpt>
      <trkpt lat="49.43745" lon="1.39984">
        <ele>90</ele>
        <time>2015-10-08T12:53:29Z</time>
      </trkpt>
      <trkpt lat="49.43862" lon="1.39956">
        <ele>91</ele>
        <time>2015-10-08T12:55:29Z</time>
      </trkpt>
      <trkpt lat="49.43957" lon="1.39836">
        <ele>91</ele>
        <time>2015-10-08T12:57:29Z</time>
      </trkpt>
      <trkpt lat="49.44045" lon="1.39864">
        <ele>99</ele>
        <time>2015-10-08T12:59:29Z</time>
      </trkpt>
      <trkpt lat="49.44131" lon="1.39846">
        <ele>102</ele>
        <time>2015-10-08T13:01:29Z</time>
      </trkpt>
      <trkpt lat="49.44207" lon="1.39767">
        <ele>99</ele>
        <time>2015-10-08T13:03:29Z</time>
      </trkpt>
      <trkpt lat="49.44258" lon="1.39615">
        <ele>101</ele>
        <time>2015-10-08T13:05:29Z</time>
      </trkpt>
      <trkpt lat="49.44314" lon="1.39548">
        <ele>109</ele>
        <time>2015-10-08T13:07:29Z</time>
      </trkpt>
      <trkpt lat="49.44406" lon="1.39589">
        <ele>118</ele>
        <time>2015-10-08T13:09:29Z</time>
      </trkpt>
      <trkpt lat="49.44441" lon="1.39593">
        <ele>120</ele>
        <time>2015-10-08T13:11:29Z</time>
      </trkpt>
      <trkpt lat="49.44502" lon="1.3954">
        <ele>120</ele>
        <time>2015-10-08T13:13:29Z</time>
      </trkpt>
      <trkpt lat="49.44558" lon="1.39462">
        <ele>113</ele>
        <time>2015-10-08T13:15:29Z</time>
      </trkpt>
      <trkpt lat="49.4473" lon="1.39437">
        <ele>106</ele>
        <time>2015-10-08T13:17:29Z</time>
      </trkpt>
      <trkpt lat="49.448" lon="1.39404">
        <ele>100</ele>
        <time>2015-10-08T13:19:29Z</time>
      </trkpt>
      <trkpt lat="49.44929" lon="1.394">
        <ele>94</ele>
        <time>2015-10-08T13:21:29Z</time>
      </trkpt>
      <trkpt lat="49.45314" lon="1.39765">
        <ele>102</ele>
        <time>2015-10-08T13:23:29Z</time>
      </trkpt>
      <trkpt lat="49.45261" lon="1.40007">
        <ele>118</ele>
        <time>2015-10-08T13:25:29Z</time>
      </trkpt>
      <trkpt lat="49.45093" lon="1.40177">
        <ele>135</ele>
        <time>2015-10-08T13:27:29Z</time>
      </trkpt>
      <trkpt lat="49.44858" lon="1.4057">
        <ele>164</ele>
        <time>2015-10-08T13:29:29Z</time>
      </trkpt>
      <trkpt lat="49.44887" lon="1.40585">
        <ele>163</ele>
        <time>2015-10-08T13:31:29Z</time>
      </trkpt>
      <trkpt lat="49.4495" lon="1.40516">
        <ele>161</ele>
        <time>2015-10-08T13:33:29Z</time>
      </trkpt>
      <trkpt lat="49.45159" lon="1.40651">
        <ele>171</ele>
        <time>2015-10-08T13:35:29Z</time>
      </trkpt>
      <trkpt lat="49.45171" lon="1.4137">
        <ele>173</ele>
        <time>2015-10-08T13:37:29Z</time>
      </trkpt>
      <trkpt lat="49.45224" lon="1.41378">
        <ele>169</ele>
        <time>2015-10-08T13:39:29Z</time>
      </trkpt>
      <trkpt lat="49.45292" lon="1.41874">
        <ele>131</ele>
        <time>2015-10-08T13:41:29Z</time>
      </trkpt>
      <trkpt lat="49.45185" lon="1.41977">
        <ele>131</ele>
        <time>2015-10-08T13:43:29Z</time>
      </trkpt>
      <trkpt lat="49.4519" lon="1.4205">
        <ele>124</ele>
        <time>2015-10-08T13:45:29Z</time>
      </trkpt>
      <trkpt lat="49.45303" lon="1.41999">
        <ele>111</ele>
        <time>2015-10-08T13:47:29Z</time>
      </trkpt>
      <trkpt lat="49.45352" lon="1.42031">
        <ele>109</ele>
        <time>2015-10-08T13:49:29Z</time>
      </trkpt>
      <trkpt lat="49.4538" lon="1.42089">
        <ele>108</ele>
        <time>2015-10-08T13:51:29Z</time>
      </trkpt>
      <trkpt lat="49.45381" lon="1.42153">
        <ele>109</ele>
        <time>2015-10-08T13:53:29Z</time>
      </trkpt>
      <trkpt lat="49.45405" lon="1.42207">
        <ele>107</ele>
        <time>2015-10-08T13:55:29Z</time>
      </trkpt>
      <trkpt lat="49.45411" lon="1.42293">
        <ele>106</ele>
        <time>2015-10-08T13:57:29Z</time>
      </trkpt>
      <trkpt lat="49.45436" lon="1.42359">
        <ele>102</ele>
        <time>2015-10-08T13:59:29Z</time>
      </trkpt>
      <trkpt lat="49.45466" lon="1.42376">
        <ele>99</ele>
        <time>2015-10-08T14:01:29Z</time>
      </trkpt>
      <trkpt lat="49.45497" lon="1.42443">
        <ele>93</ele>
        <time>2015-10-08T14:03:29Z</time>
      </trkpt>
      <trkpt lat="49.45561" lon="1.42531">
        <ele>91</ele>
        <time>2015-10-08T14:05:29Z</time>
      </trkpt>
      <trkpt lat="49.45593" lon="1.42582">
        <ele>93</ele>
        <time>2015-10-08T14:07:29Z</time>
      </trkpt>
      <trkpt lat="49.45607" lon="1.42679">
        <ele>95</ele>
        <time>2015-10-08T14:09:29Z</time>
      </trkpt>
      <trkpt lat="49.45563" lon="1.42921">
        <ele>95</ele>
        <time>2015-10-08T14:11:29Z</time>
      </trkpt>
      <trkpt lat="49.4561" lon="1.43245">
        <ele>97</ele>
        <time>2015-10-08T14:13:29Z</time>
      </trkpt>
      <trkpt lat="49.456" lon="1.43325">
        <ele>96</ele>
        <time>2015-10-08T14:15:29Z</time>
      </trkpt>
      <trkpt lat="49.45602" lon="1.43387">
        <ele>96</ele>
        <time>2015-10-08T14:17:29Z</time>
      </trkpt>
      <trkpt lat="49.45588" lon="1.43479">
        <ele>95</ele>
        <time>2015-10-08T14:19:29Z</time>
      </trkpt>
      <trkpt lat="49.45588" lon="1.43767">
        <ele>97</ele>
        <time>2015-10-08T14:21:29Z</time>
      </trkpt>
      <trkpt lat="49.45557" lon="1.44003">
        <ele>102</ele>
        <time>2015-10-08T14:23:29Z</time>
      </trkpt>
      <trkpt lat="49.45431" lon="1.44177">
        <ele>101</ele>
        <time>2015-10-08T14:25:29Z</time>
      </trkpt>
      <trkpt lat="49.45372" lon="1.44275">
        <ele>103</ele>
        <time>2015-10-08T14:27:29Z</time>
      </trkpt>
      <trkpt lat="49.45391" lon="1.44316">
        <ele>105</ele>
        <time>2015-10-08T14:29:29Z</time>
      </trkpt>
      <trkpt lat="49.45412" lon="1.44363">
        <ele>110</ele>
        <time>2015-10-08T14:31:29Z</time>
      </trkpt>
      <trkpt lat="49.45265" lon="1.44814">
        <ele>139</ele>
        <time>2015-10-08T14:33:29Z</time>
      </trkpt>
      <trkpt lat="49.45279" lon="1.44898">
        <ele>144</ele>
        <time>2015-10-08T14:35:29Z</time>
      </trkpt>
      <trkpt lat="49.45362" lon="1.45123">
        <ele>148</ele>
        <time>2015-10-08T14:37:29Z</time>
      </trkpt>
      <trkpt lat="49.4537" lon="1.45252">
        <ele>151</ele>
        <time>2015-10-08T14:39:29Z</time>
      </trkpt>
      <trkpt lat="49.45411" lon="1.45352">
        <ele>161</ele>
        <time>2015-10-08T14:41:29Z</time>
      </trkpt>
      <trkpt lat="49.4545" lon="1.45567">
        <ele>179</ele>
        <time>2015-10-08T14:43:29Z</time>
      </trkpt>
      <trkpt lat="49.45411" lon="1.45706">
        <ele>181</ele>
        <time>2015-10-08T14:45:29Z</time>
      </trkpt>
      <trkpt lat="49.45422" lon="1.46114">
        <ele>171</ele>
        <time>2015-10-08T14:47:29Z</time>
      </trkpt>
      <trkpt lat="49.45436" lon="1.46194">
        <ele>166</ele>
        <time>2015-10-08T14:49:29Z</time>
      </trkpt>
      <trkpt lat="49.4545" lon="1.46241">
        <ele>162</ele>
        <time>2015-10-08T14:51:29Z</time>
      </trkpt>
      <trkpt lat="49.45514" lon="1.46314">
        <ele>158</ele>
        <time>2015-10-08T14:53:29Z</time>
      </trkpt>
      <trkpt lat="49.45465" lon="1.46344">
        <ele>152</ele>
        <time>2015-10-08T14:55:29Z</time>
      </trkpt>
      <trkpt lat="49.45484" lon="1.46385">
        <ele>151</ele>
        <time>2015-10-08T14:57:29Z</time>
      </trkpt>
      <trkpt lat="49.45554" lon="1.46676">
        <ele>165</ele>
        <time>2015-10-08T14:59:29Z</time>
      </trkpt>
      <trkpt lat="49.45775" lon="1.46878">
        <ele>178</ele>
        <time>2015-10-08T15:01:29Z</time>
      </trkpt>
      <trkpt lat="49.45759" lon="1.47116">
        <ele>177</ele>
        <time>2015-10-08T15:03:29Z</time>
      </trkpt>
      <trkpt lat="49.45688" lon="1.47264">
        <ele>179</ele>
        <time>2015-10-08T15:05:29Z</time>
      </trkpt>
      <trkpt lat="49.45656" lon="1.4758">
        <ele>167</ele>
        <time>2015-10-08T15:07:29Z</time>
      </trkpt>
      <trkpt lat="49.44593" lon="1.50251">
        <ele>170</ele>
        <time>2015-10-08T15:09:29Z</time>
      </trkpt>
      <trkpt lat="49.44576" lon="1.50382">
        <ele>159</ele>
        <time>2015-10-08T15:11:29Z</time>
      </trkpt>
      <trkpt lat="49.44558" lon="1.50436">
        <ele>158</ele>
        <time>2015-10-08T15:13:29Z</time>
      </trkpt>
      <trkpt lat="49.44276" lon="1.50129">
        <ele>150</ele>
        <time>2015-10-08T15:15:29Z</time>
      </trkpt>
      <trkpt lat="49.4406" lon="1.50144">
        <ele>147</ele>
        <time>2015-10-08T15:17:29Z</time>
      </trkpt>
      <trkpt lat="49.43912" lon="1.50215">
        <ele>135</ele>
        <time>2015-10-08T15:19:29Z</time>
      </trkpt>
      <trkpt lat="49.43856" lon="1.5032">
        <ele>134</ele>
        <time>2015-10-08T15:21:29Z</time>
      </trkpt>
      <trkpt lat="49.43805" lon="1.50363">
        <ele>129</ele>
        <time>2015-10-08T15:23:29Z</time>
      </trkpt>
      <trkpt lat="49.43769" lon="1.50438">
        <ele>130</ele>
        <time>2015-10-08T15:25:29Z</time>
      </trkpt>
      <trkpt lat="49.4377" lon="1.50502">
        <ele>133</ele>
        <time>2015-10-08T15:27:29Z</time>
      </trkpt>
      <trkpt lat="49.43859" lon="1.50719">
        <ele>138</ele>
        <time>2015-10-08T15:29:29Z</time>
      </trkpt>
      <trkpt lat="49.4384" lon="1.50893">
        <ele>145</ele>
        <time>2015-10-08T15:31:29Z</time>
      </trkpt>
      <trkpt lat="49.43482" lon="1.5118">
        <ele>174</ele>
        <time>2015-10-08T15:33:29Z</time>
      </trkpt>
      <trkpt lat="49.43291" lon="1.50708">
        <ele>169</ele>
        <time>2015-10-08T15:35:29Z</time>
      </trkpt>
      <trkpt lat="49.42899" lon="1.51541">
        <ele>158</ele>
        <time>2015-10-08T15:37:29Z</time>
      </trkpt>
      <trkpt lat="49.43117" lon="1.51678">
        <ele>156</ele>
        <time>2015-10-08T15:39:29Z</time>
      </trkpt>
      <trkpt lat="49.42705" lon="1.52268">
        <ele>160</ele>
        <time>2015-10-08T15:41:29Z</time>
      </trkpt>
      <trkpt lat="49.42609" lon="1.52444">
        <ele>158</ele>
        <time>2015-10-08T15:43:29Z</time>
      </trkpt>
      <trkpt lat="49.42535" lon="1.52562">
        <ele>155</ele>
        <time>2015-10-08T15:45:29Z</time>
      </trkpt>
      <trkpt lat="49.42437" lon="1.52772">
        <ele>145</ele>
        <time>2015-10-08T15:47:29Z</time>
      </trkpt>
      <trkpt lat="49.42358" lon="1.52884">
        <ele>129</ele>
        <time>2015-10-08T15:49:29Z</time>
      </trkpt>
      <trkpt lat="49.42268" lon="1.52908">
        <ele>123</ele>
        <time>2015-10-08T15:51:29Z</time>
      </trkpt>
      <trkpt lat="49.4221" lon="1.53101">
        <ele>121</ele>
        <time>2015-10-08T15:53:29Z</time>
      </trkpt>
      <trkpt lat="49.42108" lon="1.53017">
        <ele>125</ele>
        <time>2015-10-08T15:55:29Z</time>
      </trkpt>
      <trkpt lat="49.42031" lon="1.52923">
        <ele>125</ele>
        <time>2015-10-08T15:57:29Z</time>
      </trkpt>
      <trkpt lat="49.41894" lon="1.52689">
        <ele>129</ele>
        <time>2015-10-08T15:59:29Z</time>
      </trkpt>
      <trkpt lat="49.41854" lon="1.52549">
        <ele>128</ele>
        <time>2015-10-08T16:01:29Z</time>
      </trkpt>
      <trkpt lat="49.4173" lon="1.52105">
        <ele>116</ele>
        <time>2015-10-08T16:03:29Z</time>
      </trkpt>
      <trkpt lat="49.41721" lon="1.52015">
        <ele>112</ele>
        <time>2015-10-08T16:05:29Z</time>
      </trkpt>
      <trkpt lat="49.41697" lon="1.51903">
        <ele>111</ele>
        <time>2015-10-08T16:07:29Z</time>
      </trkpt>
      <trkpt lat="49.41675" lon="1.51815">
        <ele>107</ele>
        <time>2015-10-08T16:09:29Z</time>
      </trkpt>
      <trkpt lat="49.41654" lon="1.51592">
        <ele>107</ele>
        <time>2015-10-08T16:11:29Z</time>
      </trkpt>
      <trkpt lat="49.41654" lon="1.51376">
        <ele>105</ele>
        <time>2015-10-08T16:13:29Z</time>
      </trkpt>
      <trkpt lat="49.41548" lon="1.50966">
        <ele>104</ele>
        <time>2015-10-08T16:15:29Z</time>
      </trkpt>
      <trkpt lat="49.41535" lon="1.50835">
        <ele>105</ele>
        <time>2015-10-08T16:17:29Z</time>
      </trkpt>
      <trkpt lat="49.41551" lon="1.50637">
        <ele>104</ele>
        <time>2015-10-08T16:19:29Z</time>
      </trkpt>
      <trkpt lat="49.41509" lon="1.50545">
        <ele>101</ele>
        <time>2015-10-08T16:21:29Z</time>
      </trkpt>
      <trkpt lat="49.41477" lon="1.50524">
        <ele>100</ele>
        <time>2015-10-08T16:23:29Z</time>
      </trkpt>
      <trkpt lat="49.41442" lon="1.50442">
        <ele>100</ele>
        <time>2015-10-08T16:25:29Z</time>
      </trkpt>
      <trkpt lat="49.41446" lon="1.5035">
        <ele>99</ele>
        <time>2015-10-08T16:27:29Z</time>
      </trkpt>
      <trkpt lat="49.41464" lon="1.50273">
        <ele>99</ele>
        <time>2015-10-08T16:29:29Z</time>
      </trkpt>
      <trkpt lat="49.41407" lon="1.50009">
        <ele>97</ele>
        <time>2015-10-08T16:31:29Z</time>
      </trkpt>
      <trkpt lat="49.41364" lon="1.49929">
        <ele>98</ele>
        <time>2015-10-08T16:33:29Z</time>
      </trkpt>
      <trkpt lat="49.41341" lon="1.49865">
        <ele>98</ele>
        <time>2015-10-08T16:35:29Z</time>
      </trkpt>
      <trkpt lat="49.413" lon="1.49867">
        <ele>97</ele>
        <time>2015-10-08T16:37:29Z</time>
      </trkpt>
      <trkpt lat="49.4124" lon="1.49783">
        <ele>95</ele>
        <time>2015-10-08T16:39:29Z</time>
      </trkpt>
      <trkpt lat="49.41107" lon="1.49618">
        <ele>94</ele>
        <time>2015-10-08T16:41:29Z</time>
      </trkpt>
      <trkpt lat="49.41092" lon="1.49552">
        <ele>93</ele>
        <time>2015-10-08T16:43:29Z</time>
      </trkpt>
      <trkpt lat="49.41117" lon="1.49477">
        <ele>97</ele>
        <time>2015-10-08T16:45:29Z</time>
      </trkpt>
      <trkpt lat="49.4059" lon="1.48547">
        <ele>93</ele>
        <time>2015-10-08T16:47:29Z</time>
      </trkpt>
      <trkpt lat="49.40494" lon="1.48361">
        <ele>93</ele>
        <time>2015-10-08T16:49:29Z</time>
      </trkpt>
      <trkpt lat="49.40416" lon="1.48178">
        <ele>101</ele>
        <time>2015-10-08T16:51:29Z</time>
      </trkpt>
      <trkpt lat="49.40347" lon="1.47805">
        <ele>97</ele>
        <time>2015-10-08T16:53:29Z</time>
      </trkpt>
      <trkpt lat="49.40361" lon="1.47784">
        <ele>101</ele>
        <time>2015-10-08T16:55:29Z</time>
      </trkpt>
      <trkpt lat="49.40346" lon="1.47715">
        <ele>101</ele>
        <time>2015-10-08T16:57:29Z</time>
      </trkpt>
      <trkpt lat="49.40319" lon="1.4759">
        <ele>103</ele>
        <time>2015-10-08T16:59:29Z</time>
      </trkpt>
      <trkpt lat="49.40283" lon="1.47515">
        <ele>101</ele>
        <time>2015-10-08T17:01:29Z</time>
      </trkpt>
      <trkpt lat="49.40146" lon="1.47294">
        <ele>93</ele>
        <time>2015-10-08T17:03:29Z</time>
      </trkpt>
      <trkpt lat="49.40121" lon="1.47324">
        <ele>89</ele>
        <time>2015-10-08T17:05:29Z</time>
      </trkpt>
      <trkpt lat="49.40049" lon="1.47344">
        <ele>87</ele>
        <time>2015-10-08T17:07:29Z</time>
      </trkpt>
      <trkpt lat="49.40025" lon="1.47361">
        <ele>87</ele>
        <time>2015-10-08T17:09:29Z</time>
      </trkpt>
      <trkpt lat="49.39913" lon="1.47359">
        <ele>94</ele>
        <time>2015-10-08T17:11:29Z</time>
      </trkpt>
      <trkpt lat="49.39885" lon="1.47329">
        <ele>95</ele>
        <time>2015-10-08T17:13:29Z</time>
      </trkpt>
      <trkpt lat="49.39894" lon="1.47406">
        <ele>98</ele>
        <time>2015-10-08T17:15:29Z</time>
      </trkpt>
      <trkpt lat="49.39962" lon="1.47498">
        <ele>97</ele>
        <time>2015-10-08T17:17:29Z</time>
      </trkpt>
      <trkpt lat="49.39973" lon="1.47608">
        <ele>101</ele>
        <time>2015-10-08T17:19:29Z</time>
      </trkpt>
      <trkpt lat="49.39919" lon="1.47681">
        <ele>106</ele>
        <time>2015-10-08T17:21:29Z</time>
      </trkpt>
      <trkpt lat="49.39861" lon="1.47659">
        <ele>107</ele>
        <time>2015-10-08T17:23:29Z</time>
      </trkpt>
      <trkpt lat="49.39954" lon="1.47837">
        <ele>103</ele>
        <time>2015-10-08T17:25:29Z</time>
      </trkpt>
      <trkpt lat="49.39891" lon="1.47887">
        <ele>110</ele>
        <time>2015-10-08T17:27:29Z</time>
      </trkpt>
      <trkpt lat="49.39919" lon="1.4791">
        <ele>107</ele>
        <time>2015-10-08T17:29:29Z</time>
      </trkpt>
    </trkseg>
  </trk>
</gpx>